Time;durP1;ratioP1;P1;durP2;ratioP2;P2;SDS_P1;SDS_P2;PMS_P1;PMS_P2;Temp;Humidity;BMP_temperature;BMP_pressure;BME280_temperature;BME280_humidity;BME280_pressure;Samples;Min_cycle;Max_cycle;Signal;HPM_P1;HPM_P2
2022/08/12 00:43:47;;;;;;;2.20;1.83;;;23.40;59.50;;;;;;5031662;28;20049;-74
2022/08/12 00:46:31;;;;;;;2.30;1.75;;;23.20;61.70;;;;;;5032056;28;20095;-73
2022/08/12 00:49:00;;;;;;;2.03;1.70;;;23.10;58.60;;;;;;5033409;28;20045;-73
2022/08/12 00:52:04;;;;;;;2.30;1.80;;;23.90;62.00;;;;;;5031763;28;20430;-70
2022/08/12 00:54:14;;;;;;;4.18;1.90;;;23.40;62.40;;;;;;5031385;28;20045;-70
2022/08/12 00:56:40;;;;;;;1.95;1.77;;;23.80;57.80;;;;;;5015709;28;20065;-72
2022/08/12 00:59:07;;;;;;;2.22;1.90;;;23.70;62.50;;;;;;5031772;28;20459;-71
2022/08/12 01:01:34;;;;;;;3.17;1.80;;;24.10;62.30;;;;;;5033050;28;20072;-71
2022/08/12 01:12:15;;;;;;;2.53;1.88;;;23.30;59.00;;;;;;5031078;28;20041;-71
2022/08/12 01:14:42;;;;;;;3.55;1.85;;;23.50;62.30;;;;;;5031473;28;20061;-71
2022/08/12 01:17:09;;;;;;;3.13;1.90;;;;;;;;;;5032740;28;20056;-72
2022/08/12 01:19:38;;;;;;;2.17;1.73;;;23.60;62.70;;;;;;5032726;28;20053;-71
2022/08/12 01:22:16;;;;;;;3.83;1.90;;;23.90;62.30;;;;;;5032201;28;20099;-71
2022/08/12 01:24:49;;;;;;;3.33;1.90;;;23.30;62.70;;;;;;5023383;28;20525;-71
2022/08/12 01:27:16;;;;;;;2.08;1.88;;;23.80;62.80;;;;;;5032584;28;20073;-71
2022/08/12 01:29:43;;;;;;;2.13;1.80;;;23.10;61.90;;;;;;5030988;28;20763;-73
2022/08/12 01:32:11;;;;;;;4.75;2.10;;;23.40;62.60;;;;;;5031015;28;20136;-73
2022/08/12 01:34:38;;;;;;;3.15;2.00;;;;;;;;;;5032261;28;20093;-73
2022/08/12 01:37:06;;;;;;;2.55;1.83;;;23.30;62.60;;;;;;5031056;28;20056;-73
2022/08/12 01:39:39;;;;;;;3.72;1.80;;;23.60;57.10;;;;;;5030949;28;20065;-72
2022/08/12 01:42:08;;;;;;;3.00;1.90;;;23.90;61.50;;;;;;5030886;28;20055;-73
2022/08/12 01:44:35;;;;;;;2.35;1.80;;;23.70;62.30;;;;;;5030925;28;20489;-70
2022/08/12 01:47:05;;;;;;;2.50;1.90;;;24.10;60.70;;;;;;5030718;28;20053;-71
2022/08/12 01:49:47;;;;;;;2.22;1.90;;;23.60;62.30;;;;;;5030890;28;20060;-71
2022/08/12 01:52:23;;;;;;;2.72;2.00;;;23.60;62.40;;;;;;5030921;28;20053;-73
2022/08/12 01:54:50;;;;;;;3.20;2.20;;;;;;;;;;5031218;28;20136;-72
2022/08/12 01:57:23;;;;;;;2.08;1.80;;;24.00;63.20;;;;;;5030787;28;20061;-71
2022/08/12 01:59:57;;;;;;;2.70;2.05;;;23.60;62.80;;;;;;5031533;28;20049;-70
2022/08/12 02:02:27;;;;;;;2.42;2.10;;;23.20;57.40;;;;;;5030733;28;20046;-72
2022/08/12 02:14:14;;;;;;;2.47;1.88;;;23.10;62.60;;;;;;5030940;28;20041;-71
2022/08/12 02:16:53;;;;;;;2.97;2.00;;;23.40;57.30;;;;;;5030812;28;20140;-71
2022/08/12 02:19:43;;;;;;;3.08;1.90;;;23.80;62.70;;;;;;5030465;28;20057;-70
2022/08/12 02:22:16;;;;;;;2.50;2.00;;;24.00;62.90;;;;;;5010396;28;20081;-71
2022/08/12 02:24:45;;;;;;;2.45;2.17;;;24.00;62.70;;;;;;5010842;28;20490;-73
2022/08/12 02:27:13;;;;;;;2.83;2.10;;;24.00;63.00;;;;;;5010832;28;20418;-73
2022/08/12 02:29:41;;;;;;;2.72;2.10;;;23.40;57.30;;;;;;5017877;28;20514;-73
2022/08/12 02:32:08;;;;;;;4.18;2.10;;;23.10;62.50;;;;;;5030390;28;20487;-72
2022/08/12 02:34:34;;;;;;;2.33;1.95;;;23.90;63.40;;;;;;5031923;28;20048;-71
2022/08/12 02:37:02;;;;;;;2.65;2.00;;;;;;;;;;5031506;28;20136;-72
2022/08/12 02:39:32;;;;;;;3.03;2.20;;;23.20;62.50;;;;;;5030298;28;20053;-74
2022/08/12 02:42:00;;;;;;;2.53;2.17;;;23.10;62.80;;;;;;5030264;28;20067;-74
2022/08/12 02:44:28;;;;;;;2.40;2.00;;;;;;;;;;5031635;28;20060;-74
2022/08/12 02:46:57;;;;;;;2.78;2.08;;;23.50;63.00;;;;;;5031716;28;20089;-73
2022/08/12 02:49:25;;;;;;;3.20;2.13;;;23.30;57.40;;;;;;5029980;28;20053;-72
2022/08/12 02:51:53;;;;;;;2.35;2.00;;;;;;;;;;5030154;28;20144;-71
2022/08/12 02:54:20;;;;;;;2.30;2.10;;;23.60;59.30;;;;;;5030228;28;20045;-71
2022/08/12 02:56:47;;;;;;;2.70;2.33;;;23.20;62.80;;;;;;5030303;28;20132;-71
2022/08/12 02:59:15;;;;;;;2.60;2.10;;;23.70;62.80;;;;;;5030312;28;20055;-71
2022/08/12 03:01:46;;;;;;;2.80;2.45;;;23.20;62.60;;;;;;5031184;28;20316;-71
2022/08/12 03:04:18;;;;;;;3.35;2.33;;;23.20;62.70;;;;;;5033838;28;20148;-70
2022/08/12 03:06:47;;;;;;;3.95;2.20;;;23.20;63.00;;;;;;5034249;28;20061;-70
2022/08/12 03:09:14;;;;;;;2.50;2.28;;;23.30;57.60;;;;;;5033941;28;20494;-71
2022/08/12 03:11:44;;;;;;;2.13;1.92;;;23.40;61.70;;;;;;5033376;28;20046;-70
2022/08/12 03:14:13;;;;;;;3.03;2.13;;;23.70;61.30;;;;;;5034027;28;20056;-70
2022/08/12 03:16:41;;;;;;;3.58;2.10;;;;;;;;;;5033966;28;20061;-73
2022/08/12 03:19:07;;;;;;;4.38;2.42;;;23.10;63.40;;;;;;5033386;28;20483;-70
2022/08/12 03:21:36;;;;;;;3.15;2.60;;;23.20;57.60;;;;;;5033693;28;20143;-72
2022/08/12 03:24:04;;;;;;;2.40;2.20;;;23.20;61.90;;;;;;5033423;28;20057;-73
2022/08/12 03:26:31;;;;;;;2.80;2.33;;;23.00;61.40;;;;;;5034000;28;20517;-73
2022/08/12 03:29:00;;;;;;;3.00;2.30;;;23.00;63.60;;;;;;5033311;28;20053;-73
2022/08/12 03:31:28;;;;;;;4.60;2.33;;;23.20;57.60;;;;;;5034479;28;20053;-72
2022/08/12 03:33:57;;;;;;;2.65;2.10;;;23.50;61.70;;;;;;5034391;28;20565;-70
2022/08/12 03:36:23;;;;;;;3.72;2.22;;;22.60;62.60;;;;;;5033572;28;20053;-71
2022/08/12 03:39:18;;;;;;;3.83;2.40;;;23.20;62.90;;;;;;5034555;28;20054;-71
2022/08/12 03:41:47;;;;;;;3.03;2.38;;;23.00;57.60;;;;;;5034177;28;20403;-71
2022/08/12 04:00:47;;;;;;;5.10;2.40;;;22.90;64.20;;;;;;5033136;28;20053;-69
2022/08/12 04:05:55;;;;;;;2.40;2.08;;;22.40;62.70;;;;;;5032065;28;20080;-69
2022/08/12 04:08:24;;;;;;;2.75;2.30;;;23.20;59.30;;;;;;5034151;28;20413;-73
2022/08/12 04:13:36;;;;;;;3.20;2.60;;;23.50;63.20;;;;;;5034001;28;20085;-73
2022/08/12 04:16:06;;;;;;;6.20;2.22;;;22.90;62.80;;;;;;5033207;28;20053;-74
2022/08/12 04:18:33;;;;;;;3.30;2.60;;;23.30;63.80;;;;;;5032520;28;20060;-73
2022/08/12 04:21:01;;;;;;;2.50;2.30;;;23.10;63.80;;;;;;5032433;28;20053;-73
2022/08/12 04:23:27;;;;;;;3.08;2.47;;;23.00;63.00;;;;;;5033392;28;20057;-73
2022/08/12 04:25:56;;;;;;;2.75;2.38;;;23.00;57.70;;;;;;5032935;28;20063;-71
2022/08/12 04:28:26;;;;;;;3.65;2.58;;;23.10;57.80;;;;;;5033480;28;20418;-73
2022/08/12 04:30:55;;;;;;;3.63;2.60;;;23.00;63.10;;;;;;5032323;28;20061;-73
2022/08/12 04:33:22;;;;;;;3.75;2.55;;;23.60;63.50;;;;;;5033837;28;20053;-74
2022/08/12 04:35:49;;;;;;;2.70;2.50;;;22.60;62.60;;;;;;5033472;28;20124;-73
2022/08/12 04:38:16;;;;;;;3.92;2.50;;;23.20;63.70;;;;;;5033150;28;20047;-74
2022/08/12 04:40:44;;;;;;;3.42;2.30;;;;;;;;;;5032450;28;20536;-72
2022/08/12 04:43:12;;;;;;;2.65;2.25;;;23.20;63.00;;;;;;5032416;28;20045;-70
2022/08/12 04:45:40;;;;;;;3.45;2.33;;;23.00;63.00;;;;;;5033712;28;20049;-70
2022/08/12 04:48:06;;;;;;;2.88;2.40;;;22.80;58.20;;;;;;5032209;28;20085;-73
2022/08/12 04:50:33;;;;;;;2.90;2.38;;;23.00;59.30;;;;;;5032106;28;20119;-73
2022/08/12 04:53:00;;;;;;;3.15;2.85;;;23.00;63.40;;;;;;5033442;28;20045;-74
2022/08/12 04:55:27;;;;;;;3.55;2.63;;;;;;;;;;5032136;28;20057;-72
2022/08/12 04:57:54;;;;;;;2.92;2.40;;;22.80;63.20;;;;;;5031910;28;20049;-73
2022/08/12 05:00:22;;;;;;;3.08;2.50;;;23.00;63.30;;;;;;5032975;28;20241;-74
2022/08/12 05:02:49;;;;;;;3.50;2.80;;;23.00;63.10;;;;;;5032975;28;20124;-73
2022/08/12 05:05:17;;;;;;;3.55;2.33;;;22.50;63.20;;;;;;5032861;28;20049;-73
2022/08/12 05:07:44;;;;;;;3.22;2.50;;;23.00;63.60;;;;;;5031513;28;20057;-73
2022/08/12 05:10:11;;;;;;;3.95;2.53;;;23.60;61.70;;;;;;5031595;28;20079;-73
2022/08/12 05:12:39;;;;;;;3.42;2.30;;;22.90;57.50;;;;;;5032939;28;20064;-72
2022/08/12 05:15:07;;;;;;;4.10;2.38;;;22.90;57.50;;;;;;5032701;28;20073;-72
2022/08/12 05:17:35;;;;;;;4.32;2.33;;;22.90;57.50;;;;;;5032900;28;20067;-70
2022/08/12 05:20:02;;;;;;;3.22;2.60;;;23.00;59.90;;;;;;5032444;28;20136;-71
2022/08/12 05:22:28;;;;;;;5.05;2.70;;;23.60;63.50;;;;;;5031587;28;20053;-71
2022/08/12 05:24:56;;;;;;;6.43;2.25;;;23.10;63.20;;;;;;5030649;28;20045;-71
2022/08/12 05:27:22;;;;;;;2.50;2.03;;;22.70;60.30;;;;;;5032712;28;20803;-71
2022/08/12 05:29:49;;;;;;;3.10;2.53;;;22.80;63.00;;;;;;5032471;28;20465;-71
2022/08/12 05:32:19;;;;;;;2.10;1.85;;;22.90;63.10;;;;;;5032343;28;20045;-71
2022/08/12 05:34:48;;;;;;;3.95;1.80;;;22.70;63.10;;;;;;5032628;28;20092;-71
2022/08/12 05:37:15;;;;;;;3.47;2.22;;;;;;;;;;5031501;28;20128;-74
2022/08/12 05:39:41;;;;;;;2.30;2.00;;;21.90;62.40;;;;;;5029747;28;20501;-74
2022/08/12 05:42:08;;;;;;;2.55;2.08;;;22.20;62.90;;;;;;5028230;28;20049;-73
2022/08/12 05:44:35;;;;;;;4.22;2.20;;;22.80;60.30;;;;;;5030317;28;20069;-74
2022/08/12 05:47:01;;;;;;;3.20;2.30;;;22.50;63.40;;;;;;5031557;28;20125;-74
2022/08/12 05:49:28;;;;;;;2.47;2.08;;;23.20;59.50;;;;;;5030835;28;20123;-74
2022/08/12 05:51:56;;;;;;;2.30;2.00;;;23.50;59.10;;;;;;5029611;28;20494;-74
2022/08/12 05:54:24;;;;;;;2.83;2.10;;;;;;;;;;5030271;28;20056;-73
2022/08/12 05:56:51;;;;;;;2.30;1.80;;;22.90;57.30;;;;;;5030958;28;20076;-73
2022/08/12 05:59:20;;;;;;;2.75;2.08;;;23.70;63.40;;;;;;5030614;28;20067;-74
2022/08/12 06:01:46;;;;;;;2.15;1.95;;;23.10;63.50;;;;;;5031508;28;20038;-74
2022/08/12 06:04:14;;;;;;;4.65;1.80;;;;;;;;;;5030580;28;20071;-73
2022/08/12 06:06:41;;;;;;;2.47;1.95;;;;;;;;;;5027765;28;20053;-74
2022/08/12 06:09:14;;;;;;;5.72;2.28;;;23.10;61.10;;;;;;5030648;28;20128;-74
2022/08/12 06:11:41;;;;;;;2.85;2.00;;;23.30;63.70;;;;;;5027899;28;20593;-74
2022/08/12 06:14:08;;;;;;;2.53;1.90;;;23.40;60.50;;;;;;5031224;28;20509;-74
2022/08/12 06:16:35;;;;;;;2.53;1.90;;;;;;;;;;5031204;28;20053;-74
2022/08/12 06:19:02;;;;;;;2.72;1.83;;;23.30;58.40;;;;;;5030485;28;20145;-73
2022/08/12 06:21:29;;;;;;;2.90;1.95;;;23.30;62.80;;;;;;5030209;28;20417;-74
2022/08/12 06:23:56;;;;;;;2.45;1.80;;;23.10;62.40;;;;;;5031200;28;20494;-74
2022/08/12 06:26:24;;;;;;;4.72;2.00;;;23.10;57.00;;;;;;5027855;28;20058;-74
2022/08/12 06:28:51;;;;;;;2.00;1.70;;;23.40;62.80;;;;;;5030016;28;20053;-74
2022/08/12 06:31:18;;;;;;;2.05;1.75;;;;;;;;;;5029069;28;20060;-72
2022/08/12 06:33:46;;;;;;;2.13;1.80;;;;;;;;;;5029760;28;20124;-74
2022/08/12 06:36:13;;;;;;;1.90;1.70;;;22.70;62.20;;;;;;5031672;28;20410;-73
2022/08/12 06:38:40;;;;;;;1.85;1.67;;;;;;;;;;5048534;28;20053;-73
2022/08/12 06:44:05;;;;;;;;;;;23.70;57.10;;;;;;4997215;28;20439;-74
2022/08/12 06:46:31;;;;;;;1.80;1.65;;;24.00;59.10;;;;;;5022863;28;19928;-75
2022/08/12 06:48:59;;;;;;;1.92;1.55;;;;;;;;;;5032187;28;20071;-73
2022/08/12 06:51:26;;;;;;;1.88;1.58;;;24.40;61.60;;;;;;5033699;28;20061;-75
2022/08/12 06:53:54;;;;;;;2.08;1.75;;;;;;;;;;5033581;28;20563;-74
2022/08/12 06:56:21;;;;;;;2.33;1.50;;;24.20;60.70;;;;;;5048183;28;20128;-75
2022/08/12 06:58:48;;;;;;;1.90;1.60;;;24.20;61.40;;;;;;5034101;28;20073;-74
2022/08/12 07:01:17;;;;;;;6.15;1.65;;;24.60;55.20;;;;;;5033748;28;20060;-72
2022/08/12 07:03:44;;;;;;;2.17;1.73;;;24.70;61.10;;;;;;5033439;28;20046;-74
2022/08/12 07:06:12;;;;;;;1.77;1.67;;;24.30;60.30;;;;;;5033764;28;20080;-75
2022/08/12 07:08:39;;;;;;;2.35;1.70;;;;;;;;;;5033956;28;20053;-73
2022/08/12 07:11:08;;;;;;;3.10;1.60;;;24.70;60.10;;;;;;5033525;28;20057;-74
2022/08/12 07:13:37;;;;;;;1.98;1.70;;;25.00;54.70;;;;;;5034600;28;20108;-74
2022/08/12 07:16:04;;;;;;;1.77;1.67;;;24.90;55.10;;;;;;5033125;28;20053;-74
2022/08/12 07:18:32;;;;;;;2.15;1.60;;;25.10;54.50;;;;;;5031635;28;20484;-73
2022/08/12 07:21:02;;;;;;;1.77;1.65;;;;;;;;;;5031690;28;20601;-74
2022/08/12 07:23:30;;;;;;;2.00;1.60;;;;;;;;;;5032455;28;20052;-75
2022/08/12 07:25:57;;;;;;;2.25;1.50;;;;;;;;;;5032220;28;20048;-75
2022/08/12 07:28:26;;;;;;;2.85;1.70;;;25.30;54.20;;;;;;5033153;28;20049;-72
2022/08/12 07:30:54;;;;;;;1.75;1.65;;;25.40;54.20;;;;;;5032048;28;20100;-72
2022/08/12 07:33:23;;;;;;;2.28;1.70;;;25.50;60.10;;;;;;5033837;28;20056;-72
2022/08/12 07:35:52;;;;;;;2.05;1.70;;;24.70;59.30;;;;;;5049932;28;20049;-72
2022/08/12 07:38:24;;;;;;;1.73;1.48;;;25.90;60.10;;;;;;5034818;28;20480;-72
2022/08/12 07:40:52;;;;;;;3.83;1.60;;;25.80;59.90;;;;;;5034595;28;20141;-72
2022/08/12 07:43:20;;;;;;;2.42;1.77;;;25.50;59.80;;;;;;5033405;28;20053;-72
2022/08/12 07:45:46;;;;;;;1.70;1.50;;;25.50;58.20;;;;;;5033048;28;20072;-72
2022/08/12 07:48:13;;;;;;;4.50;1.60;;;25.40;60.00;;;;;;5033064;28;20558;-72
2022/08/12 07:50:40;;;;;;;2.50;1.80;;;;;;;;;;5033360;28;20058;-73
2022/08/12 07:53:08;;;;;;;2.58;1.75;;;25.50;59.40;;;;;;5033271;28;20057;-72
2022/08/12 07:55:35;;;;;;;4.00;1.83;;;25.90;59.50;;;;;;5033424;28;20393;-72
2022/08/12 07:58:02;;;;;;;7.32;1.65;;;26.00;60.10;;;;;;5033039;28;20132;-72
2022/08/12 08:00:30;;;;;;;2.63;1.65;;;25.70;56.30;;;;;;5034109;28;20045;-72
2022/08/12 08:02:57;;;;;;;1.92;1.70;;;25.30;53.70;;;;;;5033610;28;20055;-72
2022/08/12 08:05:25;;;;;;;4.25;1.83;;;25.50;59.50;;;;;;5032224;28;20148;-72
2022/08/12 08:07:54;;;;;;;3.65;1.77;;;25.70;59.70;;;;;;5032770;28;20053;-71
2022/08/12 08:10:22;;;;;;;4.88;1.83;;;25.80;53.70;;;;;;5033193;28;20458;-73
2022/08/12 08:12:55;;;;;;;3.78;1.80;;;;;;;;;;5033024;28;20057;-73
2022/08/12 08:15:23;;;;;;;2.50;1.98;;;25.90;53.70;;;;;;5032847;28;20095;-74
2022/08/12 08:17:56;;;;;;;2.53;2.05;;;25.90;59.30;;;;;;5032754;28;20137;-74
2022/08/12 08:20:27;;;;;;;2.13;1.60;;;;;;;;;;5032658;28;20053;-73
2022/08/12 08:22:54;;;;;;;2.78;1.77;;;26.00;59.30;;;;;;5032927;28;20053;-75
2022/08/12 08:25:29;;;;;;;5.93;1.88;;;26.50;59.70;;;;;;5032417;28;20084;-75
2022/08/12 08:27:57;;;;;;;6.18;1.83;;;25.60;57.30;;;;;;5031294;28;20558;-75
2022/08/12 08:30:24;;;;;;;3.85;2.30;;;26.00;59.00;;;;;;5030423;28;20045;-75
2022/08/12 08:32:51;;;;;;;5.03;1.92;;;;;;;;;;5030092;28;20064;-75
2022/08/12 08:35:18;;;;;;;4.55;2.00;;;26.00;59.70;;;;;;5030690;28;20060;-74
2022/08/12 08:37:45;;;;;;;3.17;1.92;;;26.30;59.40;;;;;;5031955;28;20060;-75
2022/08/12 08:42:58;;;;;;;4.45;1.90;;;25.90;59.80;;;;;;5031531;28;20053;-75
2022/08/12 08:45:26;;;;;;;2.50;1.95;;;26.00;59.30;;;;;;5031762;28;20490;-75
2022/08/12 08:47:53;;;;;;;3.55;1.80;;;;;;;;;;5033321;28;20096;-75
2022/08/12 08:50:20;;;;;;;2.92;1.95;;;26.50;54.60;;;;;;5031877;28;20136;-75
2022/08/12 08:52:47;;;;;;;3.00;1.90;;;26.10;59.90;;;;;;5031766;28;20140;-75
2022/08/12 08:55:15;;;;;;;4.28;1.98;;;26.00;53.90;;;;;;5032074;28;20148;-73
2022/08/12 08:57:42;;;;;;;3.00;1.90;;;;;;;;;;5031879;28;20520;-74
2022/08/12 09:00:14;;;;;;;3.53;1.90;;;25.90;59.40;;;;;;5030462;28;20058;-75
2022/08/12 09:02:40;;;;;;;2.83;1.70;;;26.30;59.60;;;;;;5031292;28;20537;-75
2022/08/12 09:05:10;;;;;;;2.55;1.85;;;26.30;54.60;;;;;;5027843;28;20087;-75
2022/08/12 09:07:43;;;;;;;2.88;2.00;;;26.00;57.30;;;;;;5029725;28;20059;-75
2022/08/12 09:10:11;;;;;;;3.22;1.90;;;;;;;;;;5030974;28;20051;-73
2022/08/12 09:15:23;;;;;;;2.42;2.00;;;26.10;59.90;;;;;;5030359;28;20049;-72
2022/08/12 09:18:00;;;;;;;2.45;1.80;;;26.20;59.40;;;;;;5028682;28;20135;-73
2022/08/12 09:20:28;;;;;;;3.03;1.92;;;26.00;54.10;;;;;;5047752;28;20061;-74
2022/08/12 09:22:55;;;;;;;3.40;1.98;;;26.00;54.10;;;;;;5031742;28;20053;-72
2022/08/12 09:25:22;;;;;;;2.30;1.70;;;25.30;57.20;;;;;;5031279;28;20057;-71
2022/08/12 09:27:50;;;;;;;3.22;1.85;;;26.40;60.20;;;;;;5032801;28;20091;-71
2022/08/12 09:30:17;;;;;;;3.70;2.20;;;25.30;58.80;;;;;;5032090;28;20053;-71
2022/08/12 09:32:49;;;;;;;2.45;1.80;;;26.10;57.50;;;;;;5029656;28;20055;-71
2022/08/12 09:35:18;;;;;;;2.38;1.80;;;25.40;58.80;;;;;;5030150;28;20053;-71
2022/08/12 09:37:45;;;;;;;2.97;1.90;;;25.70;59.60;;;;;;5030842;28;20447;-73
2022/08/12 09:40:12;;;;;;;3.13;2.10;;;25.90;55.50;;;;;;5011185;28;20100;-72
2022/08/12 09:45:24;;;;;;;5.15;1.95;;;26.20;60.20;;;;;;5028193;28;20502;-73
2022/08/12 09:47:52;;;;;;;1.90;1.60;;;26.00;60.00;;;;;;5020161;28;20053;-75
2022/08/12 09:50:20;;;;;;;3.90;2.33;;;;;;;;;;5031176;28;20053;-74
2022/08/12 09:52:51;;;;;;;2.33;1.75;;;26.00;59.90;;;;;;5031036;28;20145;-74
2022/08/12 09:55:18;;;;;;;2.33;2.13;;;25.90;54.10;;;;;;5031307;28;20100;-72
2022/08/12 09:57:45;;;;;;;2.28;1.98;;;26.40;60.20;;;;;;5031513;28;20466;-72
2022/08/12 10:00:13;;;;;;;2.10;1.70;;;26.20;59.50;;;;;;5030283;28;20057;-72
2022/08/12 10:02:39;;;;;;;2.85;1.75;;;26.50;59.90;;;;;;5031839;28;20054;-73
2022/08/12 10:05:09;;;;;;;2.10;1.80;;;26.00;57.00;;;;;;5031136;28;20055;-72
2022/08/12 10:07:37;;;;;;;2.10;1.70;;;;;;;;;;5031840;28;20050;-73
2022/08/12 10:10:04;;;;;;;2.38;1.75;;;26.80;60.00;;;;;;5031641;28;20061;-75
2022/08/12 10:15:18;;;;;;;2.25;1.80;;;26.10;59.80;;;;;;5005519;28;20077;-75
2022/08/12 10:17:45;;;;;;;3.80;1.80;;;26.00;59.00;;;;;;5030645;28;20073;-74
2022/08/12 10:20:13;;;;;;;2.20;1.90;;;26.90;60.40;;;;;;5031535;28;20084;-73
2022/08/12 10:22:40;;;;;;;2.35;1.80;;;26.70;55.90;;;;;;5031995;28;20049;-73
2022/08/12 10:30:36;;;;;;;1.95;1.50;;;25.40;59.20;;;;;;5031963;28;20015;-75
2022/08/12 10:33:04;;;;;;;2.88;1.60;;;25.50;59.70;;;;;;5030788;28;20060;-72
2022/08/12 10:35:32;;;;;;;2.40;1.80;;;26.10;54.30;;;;;;5030571;28;20050;-73
2022/08/12 10:38:01;;;;;;;2.80;2.03;;;;;;;;;;5031536;28;20108;-73
2022/08/12 10:40:29;;;;;;;3.03;1.50;;;26.70;60.50;;;;;;5029001;28;20072;-71
2022/08/12 10:45:55;;;;;;;2.03;1.70;;;26.20;59.50;;;;;;4970600;28;20647;-71
2022/08/12 10:48:22;;;;;;;2.10;1.63;;;26.30;57.90;;;;;;4954324;28;20133;-73
2022/08/12 10:50:50;;;;;;;1.98;1.63;;;26.20;59.40;;;;;;4985884;28;20494;-72
2022/08/12 10:53:21;;;;;;;2.00;1.73;;;26.50;59.80;;;;;;5031690;28;20053;-74
2022/08/12 10:55:48;;;;;;;2.33;2.00;;;26.80;59.80;;;;;;5030631;28;20053;-73
2022/08/12 10:58:14;;;;;;;2.38;1.67;;;26.00;56.30;;;;;;5029482;28;20133;-71
2022/08/12 11:00:42;;;;;;;3.17;1.83;;;26.00;59.20;;;;;;5029818;28;20053;-71
2022/08/12 11:03:08;;;;;;;2.50;1.60;;;25.80;59.60;;;;;;5030199;28;20053;-71
2022/08/12 11:05:35;;;;;;;2.10;1.65;;;26.20;55.20;;;;;;5029656;28;20154;-71
2022/08/12 11:08:04;;;;;;;2.10;1.75;;;26.00;59.30;;;;;;5029643;28;20058;-73
2022/08/12 11:10:32;;;;;;;1.75;1.60;;;25.60;59.20;;;;;;5029932;28;20059;-74
2022/08/12 11:12:59;;;;;;;1.90;1.60;;;26.40;59.90;;;;;;5030415;28;20176;-72
2022/08/12 11:15:26;;;;;;;2.10;1.83;;;;;;;;;;5031271;28;20423;-73
2022/08/12 11:17:53;;;;;;;2.17;1.98;;;26.60;60.50;;;;;;5037812;28;20053;-72
2022/08/12 11:20:20;;;;;;;2.30;1.90;;;;;;;;;;5051120;28;20059;-73
2022/08/12 11:22:55;;;;;;;2.42;1.90;;;25.80;59.80;;;;;;5051601;28;20131;-71
2022/08/12 11:25:23;;;;;;;3.67;2.20;;;25.90;57.20;;;;;;5054943;28;20127;-71
2022/08/12 11:27:50;;;;;;;3.42;2.03;;;;;;;;;;5040876;28;20132;-73
2022/08/12 11:30:17;;;;;;;2.50;2.00;;;26.70;60.30;;;;;;5049549;28;20056;-75
2022/08/12 11:32:44;;;;;;;2.55;1.88;;;26.30;59.50;;;;;;5033012;28;20149;-74
2022/08/12 11:35:11;;;;;;;3.65;2.05;;;26.10;59.40;;;;;;5033553;28;20537;-75
2022/08/12 11:37:39;;;;;;;3.08;2.10;;;26.30;59.20;;;;;;5034836;28;20057;-74
2022/08/12 11:40:06;;;;;;;3.50;2.47;;;26.20;55.10;;;;;;5033188;28;20053;-74
2022/08/12 11:42:35;;;;;;;3.50;2.35;;;26.10;59.50;;;;;;5020714;28;20517;-74
2022/08/12 11:45:01;;;;;;;2.10;1.90;;;26.50;59.50;;;;;;5034424;28;20065;-74
2022/08/12 11:47:28;;;;;;;2.58;2.08;;;26.40;59.30;;;;;;5034276;28;20133;-75
2022/08/12 11:49:55;;;;;;;2.97;2.05;;;;;;;;;;5033366;28;20144;-73
2022/08/12 11:52:22;;;;;;;3.75;2.00;;;26.20;59.90;;;;;;5049209;28;20060;-73
2022/08/12 11:54:49;;;;;;;4.80;2.20;;;;;;;;;;5016838;28;20472;-72
2022/08/12 11:57:16;;;;;;;2.20;1.92;;;26.10;59.40;;;;;;5049849;28;20057;-72
2022/08/12 11:59:44;;;;;;;2.00;1.80;;;26.60;60.10;;;;;;5034515;28;20411;-75
2022/08/12 12:02:11;;;;;;;3.53;2.25;;;25.80;59.00;;;;;;5033141;28;20053;-75
2022/08/12 12:04:40;;;;;;;2.80;2.38;;;26.20;59.90;;;;;;5047713;28;20410;-72
2022/08/12 12:07:07;;;;;;;2.53;2.00;;;26.20;59.70;;;;;;5054174;28;20055;-73
2022/08/12 12:09:34;;;;;;;3.15;1.98;;;25.90;59.00;;;;;;5054071;28;20049;-72
2022/08/12 12:12:03;;;;;;;3.03;2.33;;;26.80;59.50;;;;;;5053683;28;20110;-72
2022/08/12 12:14:30;;;;;;;4.78;2.17;;;;;;;;;;5043723;28;20073;-73
2022/08/12 12:16:58;;;;;;;3.08;2.20;;;25.60;58.80;;;;;;5034165;28;20041;-72
2022/08/12 12:19:25;;;;;;;3.47;2.25;;;26.50;59.20;;;;;;5033699;28;20136;-71
2022/08/12 12:21:52;;;;;;;3.47;2.17;;;26.90;55.80;;;;;;5033437;28;20045;-72
2022/08/12 12:24:19;;;;;;;3.65;2.40;;;26.10;59.20;;;;;;5030698;28;20057;-72
2022/08/12 12:26:46;;;;;;;5.57;2.40;;;;;;;;;;5032854;28;20383;-75
2022/08/12 12:29:12;;;;;;;3.92;2.28;;;26.90;60.30;;;;;;5033400;28;20041;-75
2022/08/12 12:31:39;;;;;;;4.10;2.10;;;26.30;59.10;;;;;;5033625;28;20132;-74
2022/08/12 12:34:07;;;;;;;4.22;2.20;;;25.80;58.60;;;;;;5032257;28;20053;-75
2022/08/12 12:36:34;;;;;;;3.10;2.17;;;;;;;;;;5032526;28;20132;-72
2022/08/12 12:39:01;;;;;;;2.58;2.30;;;26.40;58.70;;;;;;5033562;28;20055;-75
2022/08/12 12:41:28;;;;;;;3.53;2.33;;;26.30;59.40;;;;;;5032889;28;20504;-71
2022/08/12 12:43:55;;;;;;;2.85;2.20;;;;;;;;;;5051137;28;20052;-75
2022/08/12 12:46:22;;;;;;;2.55;2.30;;;26.40;59.10;;;;;;5052212;28;20053;-75
2022/08/12 12:48:49;;;;;;;5.22;2.60;;;25.80;55.00;;;;;;5035858;28;20509;-75
2022/08/12 12:51:17;;;;;;;4.97;2.67;;;25.90;59.40;;;;;;5051715;28;20056;-75
2022/08/12 12:53:46;;;;;;;4.28;2.88;;;25.80;58.50;;;;;;5032234;28;20055;-72
2022/08/12 12:56:16;;;;;;;4.53;2.42;;;26.20;59.40;;;;;;5031360;28;20077;-70
2022/08/12 12:58:43;;;;;;;3.38;2.33;;;26.30;54.40;;;;;;5031803;28;20128;-71
2022/08/12 13:01:10;;;;;;;3.83;2.55;;;25.50;58.40;;;;;;5032045;28;20145;-70
2022/08/12 13:03:37;;;;;;;4.50;2.72;;;26.20;59.00;;;;;;5032088;28;20502;-73
2022/08/12 13:06:04;;;;;;;8.95;2.75;;;26.00;58.70;;;;;;5032640;28;20042;-71
2022/08/12 13:08:32;;;;;;;5.07;2.90;;;25.90;59.40;;;;;;5032974;28;20046;-71
2022/08/12 13:11:00;;;;;;;5.25;2.75;;;26.50;59.80;;;;;;5046695;28;20218;-71
2022/08/12 13:13:28;;;;;;;5.03;2.92;;;26.30;59.10;;;;;;5053209;28;20052;-71
2022/08/12 13:15:55;;;;;;;6.32;2.60;;;26.40;59.00;;;;;;5052986;28;20524;-71
2022/08/12 13:18:22;;;;;;;4.57;2.53;;;26.20;59.70;;;;;;5053004;28;20055;-71
2022/08/12 13:20:49;;;;;;;5.63;2.85;;;26.50;59.20;;;;;;5037860;28;20054;-71
2022/08/12 13:23:19;;;;;;;7.15;3.10;;;26.10;59.20;;;;;;5031036;28;20129;-74
2022/08/12 13:25:48;;;;;;;5.35;2.55;;;26.50;59.30;;;;;;5031379;28;20713;-74
2022/08/12 13:28:20;;;;;;;4.38;2.38;;;26.00;58.80;;;;;;5031370;28;20464;-74
2022/08/12 13:30:48;;;;;;;4.43;2.53;;;26.90;60.20;;;;;;5032212;28;20490;-74
2022/08/12 13:33:16;;;;;;;5.18;2.55;;;26.50;59.20;;;;;;5047885;28;20586;-71
2022/08/12 13:35:43;;;;;;;5.28;2.40;;;25.60;58.50;;;;;;5031228;28;20045;-72
2022/08/12 13:38:10;;;;;;;4.57;2.60;;;25.90;59.30;;;;;;5031580;28;20057;-72
2022/08/12 13:40:38;;;;;;;4.72;2.90;;;26.30;59.40;;;;;;5041854;28;20056;-72
2022/08/12 13:43:06;;;;;;;3.47;2.70;;;25.60;58.80;;;;;;5051271;28;20549;-72
2022/08/12 13:45:34;;;;;;;4.57;2.50;;;25.90;58.00;;;;;;5051649;28;20136;-72
2022/08/12 13:48:02;;;;;;;4.93;2.83;;;27.10;59.70;;;;;;5051089;28;20053;-75
2022/08/12 13:50:31;;;;;;;3.38;2.47;;;25.90;58.90;;;;;;5041027;28;20478;-72
2022/08/12 13:52:59;;;;;;;4.38;2.70;;;27.10;59.90;;;;;;5041897;28;20051;-72
2022/08/12 13:55:25;;;;;;;3.10;2.42;;;26.50;60.10;;;;;;5051941;28;20045;-71
2022/08/12 13:57:53;;;;;;;4.00;2.22;;;26.00;59.00;;;;;;5052322;28;20079;-71
2022/08/12 14:00:21;;;;;;;3.88;2.58;;;26.30;54.40;;;;;;5044811;28;20067;-72
2022/08/12 14:02:48;;;;;;;4.10;2.83;;;;;;;;;;5012554;28;20078;-73
2022/08/12 14:05:16;;;;;;;4.00;2.60;;;26.00;59.80;;;;;;5031915;28;20049;-72
2022/08/12 14:07:56;;;;;;;3.50;2.50;;;25.90;59.70;;;;;;5031833;28;20049;-75
2022/08/12 14:10:37;;;;;;;4.20;2.60;;;26.20;54.50;;;;;;5032137;28;20133;-73
2022/08/12 14:13:09;;;;;;;4.00;2.38;;;26.40;59.70;;;;;;5031791;28;20049;-75
2022/08/12 14:15:41;;;;;;;4.43;2.80;;;26.40;59.90;;;;;;5031214;28;20057;-75
2022/08/12 14:18:09;;;;;;;3.75;2.50;;;26.80;57.60;;;;;;5031547;28;20469;-72
2022/08/12 14:20:35;;;;;;;4.40;2.30;;;26.40;60.10;;;;;;5040326;28;20045;-72
2022/08/12 14:23:02;;;;;;;3.33;2.63;;;26.30;59.50;;;;;;5051735;28;20508;-72
2022/08/12 14:25:29;;;;;;;4.25;2.22;;;25.50;58.80;;;;;;5036465;28;20653;-72
2022/08/12 14:28:03;;;;;;;3.53;2.42;;;26.40;59.40;;;;;;5030291;28;20498;-75
2022/08/12 14:30:30;;;;;;;3.47;2.50;;;;;;;;;;5030469;28;20061;-75
2022/08/12 14:33:02;;;;;;;3.72;2.40;;;26.40;59.90;;;;;;5046671;28;20058;-75
2022/08/12 14:35:28;;;;;;;3.35;2.22;;;25.60;59.50;;;;;;5030415;28;20063;-75
2022/08/12 14:37:55;;;;;;;2.90;2.40;;;26.10;59.60;;;;;;5030569;28;20053;-72
2022/08/12 14:40:22;;;;;;;3.38;2.33;;;;;;;;;;5030636;28;20516;-72
2022/08/12 14:42:49;;;;;;;4.05;2.50;;;26.90;60.00;;;;;;5047330;28;20063;-72
2022/08/12 14:45:16;;;;;;;3.65;2.40;;;26.20;59.40;;;;;;5031642;28;20072;-72
2022/08/12 14:47:53;;;;;;;3.70;2.40;;;26.10;59.40;;;;;;5031844;28;20152;-72
2022/08/12 14:50:21;;;;;;;3.00;2.25;;;26.40;55.00;;;;;;5037787;28;20136;-72
2022/08/12 14:52:49;;;;;;;3.03;2.40;;;;;;;;;;5011807;28;20060;-73